Time;durP1;ratioP1;P1;durP2;ratioP2;P2;SDS_P1;SDS_P2;PMS_P1;PMS_P2;Temp;Humidity;BMP_temperature;BMP_pressure;BME280_temperature;BME280_humidity;BME280_pressure;Samples;Min_cycle;Max_cycle;Signal;HPM_P1;HPM_P2
2021/10/07 00:00:34;;;;;;;2.80;2.07;;;7.60;98.70;;;;;;2082641;28;20181;-65
2021/10/07 00:01:35;;;;;;;7.47;2.20;;;7.60;98.50;;;;;;2082244;28;20192;-65
2021/10/07 00:02:35;;;;;;;5.00;2.23;;;7.60;98.40;;;;;;2082586;28;20178;-65
2021/10/07 00:03:36;;;;;;;2.87;2.10;;;7.70;98.40;;;;;;2082560;28;20316;-66
2021/10/07 00:04:37;;;;;;;5.43;2.50;;;7.70;98.30;;;;;;2082529;28;20238;-65
2021/10/07 00:05:38;;;;;;;3.73;2.33;;;7.80;98.10;;;;;;2082489;28;20465;-65
2021/10/07 00:06:39;;;;;;;4.10;2.80;;;7.80;98.10;;;;;;2082352;28;20181;-65
2021/10/07 00:07:40;;;;;;;4.33;2.23;;;7.90;97.80;;;;;;2082419;28;20482;-65
2021/10/07 00:08:40;;;;;;;5.10;2.33;;;7.90;97.50;;;;;;2082397;28;20181;-66
2021/10/07 00:09:41;;;;;;;3.23;2.50;;;7.90;97.40;;;;;;2082044;28;20283;-66
2021/10/07 00:10:42;;;;;;;2.80;2.23;;;7.90;97.90;;;;;;2081736;28;20206;-65
2021/10/07 00:11:42;;;;;;;2.60;2.33;;;7.90;98.30;;;;;;2082311;28;20186;-65
2021/10/07 00:12:43;;;;;;;3.30;2.07;;;7.80;97.70;;;;;;2082608;28;20203;-65
2021/10/07 00:13:44;;;;;;;2.67;2.10;;;7.80;97.70;;;;;;2082359;28;20479;-65
2021/10/07 00:14:45;;;;;;;3.08;2.47;;;7.90;97.80;;;;;;2082443;28;20228;-65
2021/10/07 00:15:46;;;;;;;2.90;2.30;;;7.90;97.90;;;;;;2082426;28;20185;-64
2021/10/07 00:16:47;;;;;;;6.93;2.37;;;7.80;97.90;;;;;;2081768;28;20177;-66
2021/10/07 00:17:47;;;;;;;2.93;1.90;;;7.80;98.00;;;;;;2082119;28;20276;-66
2021/10/07 00:18:50;;;;;;;2.43;2.20;;;7.80;98.00;;;;;;2082479;28;20821;-65
2021/10/07 00:19:51;;;;;;;2.63;2.03;;;7.80;98.10;;;;;;2082436;28;20260;-65
2021/10/07 00:20:53;;;;;;;3.63;2.28;;;7.80;98.20;;;;;;2082594;28;20189;-65
2021/10/07 00:21:54;;;;;;;3.03;2.00;;;7.70;98.20;;;;;;2082000;28;20194;-65
2021/10/07 00:22:55;;;;;;;2.67;2.17;;;7.60;98.40;;;;;;2082546;28;20499;-66
2021/10/07 00:24:08;;;;;;;2.90;2.30;;;7.60;98.60;;;;;;2082448;28;20264;-65
2021/10/07 00:25:14;;;;;;;3.75;2.33;;;7.60;98.80;;;;;;2082442;28;20193;-66
2021/10/07 00:26:14;;;;;;;2.92;1.98;;;7.50;99.10;;;;;;2082592;28;20169;-65
2021/10/07 00:27:15;;;;;;;2.87;2.00;;;7.50;99.30;;;;;;2082225;28;20598;-66
2021/10/07 00:28:16;;;;;;;3.53;2.00;;;7.50;99.30;;;;;;2082376;28;20216;-65
2021/10/07 00:30:40;;;;;;;3.95;1.88;;;7.50;99.40;;;;;;2082386;28;20166;-66
2021/10/07 00:31:43;;;;;;;2.45;1.63;;;7.50;99.40;;;;;;2082126;28;20185;-66
2021/10/07 00:33:33;;;;;;;2.40;1.50;;;7.50;99.40;;;;;;2082166;28;20181;-65
2021/10/07 00:34:53;;;;;;;2.40;1.70;;;7.50;99.30;;;;;;2079227;28;20189;-66
2021/10/07 00:36:42;;;;;;;1.90;1.70;;;7.50;99.20;;;;;;2082607;28;20212;-65
2021/10/07 00:39:04;;;;;;;1.85;1.55;;;7.60;99.20;;;;;;2082388;28;20161;-65
2021/10/07 00:40:06;;;;;;;3.72;1.80;;;7.60;99.30;;;;;;2082372;28;20184;-65
2021/10/07 00:41:07;;;;;;;2.10;1.30;;;7.60;99.30;;;;;;2082346;28;20459;-65
2021/10/07 00:42:10;;;;;;;1.93;1.50;;;7.60;99.40;;;;;;2081809;28;20239;-66
2021/10/07 00:43:11;;;;;;;2.60;1.27;;;7.60;99.50;;;;;;2081674;28;20175;-65
2021/10/07 00:44:12;;;;;;;3.07;1.40;;;7.60;99.60;;;;;;2082235;28;20684;-66
2021/10/07 00:45:13;;;;;;;2.17;1.60;;;7.50;99.60;;;;;;2082363;28;20694;-66
2021/10/07 00:46:14;;;;;;;1.55;1.38;;;7.60;99.50;;;;;;2082135;28;20169;-66
2021/10/07 00:47:16;;;;;;;1.63;1.20;;;7.60;99.40;;;;;;2082401;28;20569;-65
2021/10/07 00:48:18;;;;;;;2.55;1.20;;;7.70;99.30;;;;;;2081577;28;20169;-67
2021/10/07 00:49:21;;;;;;;2.53;1.45;;;7.70;99.20;;;;;;2073400;28;20182;-65
2021/10/07 00:50:22;;;;;;;2.20;1.40;;;7.80;99.00;;;;;;2081581;28;20207;-65
2021/10/07 00:51:23;;;;;;;3.50;1.30;;;7.80;98.80;;;;;;2082044;28;20552;-65
2021/10/07 00:52:24;;;;;;;2.20;1.30;;;7.90;98.70;;;;;;2082188;28;20193;-66
2021/10/07 00:53:24;;;;;;;1.83;1.27;;;7.90;98.50;;;;;;2082026;28;20179;-66
2021/10/07 00:54:28;;;;;;;1.30;1.20;;;8.00;98.40;;;;;;2082178;28;20654;-65
2021/10/07 00:55:29;;;;;;;3.00;1.40;;;8.00;98.20;;;;;;2082072;28;20186;-65
2021/10/07 00:56:29;;;;;;;2.30;1.60;;;8.00;98.10;;;;;;2081421;28;20190;-67
2021/10/07 00:57:30;;;;;;;3.40;1.33;;;8.00;98.10;;;;;;2073436;28;20208;-65
2021/10/07 00:58:31;;;;;;;2.40;1.50;;;7.90;98.20;;;;;;2081640;28;20266;-66
2021/10/07 00:59:35;;;;;;;2.00;1.40;;;7.90;98.20;;;;;;2081413;28;20178;-66
2021/10/07 01:00:36;;;;;;;2.42;1.30;;;7.90;98.20;;;;;;2073697;28;20192;-66
2021/10/07 01:01:37;;;;;;;1.67;1.20;;;7.90;98.30;;;;;;2081176;28;20177;-66
2021/10/07 01:02:38;;;;;;;3.83;1.20;;;7.90;98.30;;;;;;2082209;28;20634;-66
2021/10/07 01:03:38;;;;;;;1.67;1.30;;;7.90;98.20;;;;;;2082025;28;20180;-65
2021/10/07 01:04:39;;;;;;;4.03;1.40;;;7.90;98.20;;;;;;2081827;28;20201;-65
2021/10/07 01:05:40;;;;;;;1.53;1.10;;;7.90;98.30;;;;;;2081932;28;20664;-65
2021/10/07 01:06:42;;;;;;;2.20;1.10;;;7.80;98.30;;;;;;2081451;28;20185;-65
2021/10/07 01:07:43;;;;;;;4.25;1.15;;;7.80;98.40;;;;;;2081414;28;20183;-65
2021/10/07 01:08:44;;;;;;;4.53;1.20;;;7.90;98.40;;;;;;2082114;28;20189;-67
2021/10/07 01:09:45;;;;;;;3.03;1.20;;;7.90;98.30;;;;;;2082039;28;20653;-65
2021/10/07 01:10:46;;;;;;;2.20;1.40;;;7.80;98.40;;;;;;2082068;28;20655;-66
2021/10/07 01:11:47;;;;;;;1.20;1.10;;;7.80;98.30;;;;;;2081746;28;20181;-65
2021/10/07 01:12:47;;;;;;;1.20;1.10;;;7.90;98.20;;;;;;2082050;28;20183;-65
2021/10/07 01:13:48;;;;;;;1.20;1.10;;;7.80;98.20;;;;;;2081923;28;20216;-66
2021/10/07 01:14:52;;;;;;;2.03;1.17;;;7.80;98.30;;;;;;2081854;28;20205;-65
2021/10/07 01:16:01;;;;;;;2.38;1.35;;;7.70;98.50;;;;;;2081250;28;20184;-66
2021/10/07 01:17:03;;;;;;;1.35;1.25;;;7.80;98.50;;;;;;2081395;28;20249;-65
2021/10/07 01:18:03;;;;;;;1.48;1.30;;;7.70;98.50;;;;;;2081071;28;20271;-65
2021/10/07 01:19:04;;;;;;;1.20;1.10;;;7.80;98.60;;;;;;2081372;28;20180;-66
2021/10/07 01:20:07;;;;;;;2.93;1.30;;;7.70;98.50;;;;;;2081905;28;20274;-65
2021/10/07 01:21:11;;;;;;;1.48;1.20;;;7.70;98.50;;;;;;2081817;28;20240;-64
2021/10/07 01:22:14;;;;;;;2.15;1.17;;;7.70;98.60;;;;;;2081832;28;20178;-67
2021/10/07 01:23:15;;;;;;;2.17;1.50;;;7.70;98.50;;;;;;2081988;28;20179;-65
2021/10/07 01:24:15;;;;;;;1.43;1.33;;;7.90;98.20;;;;;;2081897;28;20184;-65
2021/10/07 01:25:16;;;;;;;3.67;1.20;;;7.90;97.80;;;;;;2081711;28;20208;-66
2021/10/07 01:26:21;;;;;;;5.17;1.40;;;7.90;97.70;;;;;;2081858;28;20175;-66
2021/10/07 01:27:25;;;;;;;1.30;1.20;;;7.90;97.70;;;;;;2081335;28;20726;-65
2021/10/07 01:28:26;;;;;;;1.20;1.10;;;7.90;97.60;;;;;;2073665;28;20184;-64
2021/10/07 01:29:27;;;;;;;1.30;1.20;;;7.90;97.50;;;;;;2081339;28;20189;-66
2021/10/07 01:30:27;;;;;;;1.30;1.20;;;7.90;97.50;;;;;;2081209;28;20213;-65
2021/10/07 01:31:28;;;;;;;1.30;1.20;;;7.90;97.50;;;;;;2080816;28;20209;-66
2021/10/07 01:32:33;;;;;;;1.83;1.10;;;7.90;97.70;;;;;;2081760;28;20181;-65
2021/10/07 01:33:34;;;;;;;1.55;1.20;;;7.80;97.90;;;;;;2081141;28;20640;-65
2021/10/07 01:34:36;;;;;;;3.05;1.33;;;7.80;97.90;;;;;;2081154;28;20200;-66
2021/10/07 01:35:37;;;;;;;1.55;1.38;;;7.80;97.90;;;;;;2081976;28;20185;-65
2021/10/07 01:36:38;;;;;;;3.20;1.40;;;7.80;98.10;;;;;;2081199;28;20179;-65
2021/10/07 01:37:38;;;;;;;1.40;1.20;;;7.80;98.30;;;;;;2081176;28;20192;-66
2021/10/07 01:38:39;;;;;;;2.10;1.60;;;7.70;98.50;;;;;;2081758;28;20191;-65
2021/10/07 01:39:40;;;;;;;1.93;1.40;;;7.70;98.50;;;;;;2081180;28;20552;-65
2021/10/07 01:40:40;;;;;;;1.60;1.30;;;7.70;98.60;;;;;;2082176;28;20177;-64
2021/10/07 01:41:41;;;;;;;2.03;1.17;;;7.80;98.60;;;;;;2081495;28;20186;-65
2021/10/07 01:42:42;;;;;;;2.10;1.30;;;7.70;98.60;;;;;;2080266;28;20177;-65
2021/10/07 01:43:44;;;;;;;1.65;1.20;;;7.80;98.70;;;;;;2074271;28;20209;-65
2021/10/07 01:44:45;;;;;;;1.50;1.20;;;7.80;98.80;;;;;;2073517;28;20206;-65
2021/10/07 01:45:47;;;;;;;2.17;1.40;;;7.80;98.70;;;;;;2073663;28;20548;-64
2021/10/07 01:46:48;;;;;;;1.40;1.30;;;7.90;98.60;;;;;;2073529;28;20192;-65
2021/10/07 01:47:49;;;;;;;2.10;1.20;;;7.90;98.40;;;;;;2073520;28;20178;-65
2021/10/07 01:48:50;;;;;;;1.63;1.10;;;7.90;98.30;;;;;;2073686;28;20227;-65
2021/10/07 01:49:51;;;;;;;2.13;1.10;;;7.90;98.20;;;;;;2073716;28;20250;-65
2021/10/07 01:50:51;;;;;;;3.43;1.50;;;7.90;98.30;;;;;;2073688;28;20196;-65
2021/10/07 01:51:52;;;;;;;1.43;1.10;;;7.90;98.30;;;;;;2072958;28;20209;-64
2021/10/07 01:52:53;;;;;;;1.20;1.00;;;8.00;98.40;;;;;;2073003;28;20170;-66
2021/10/07 01:53:54;;;;;;;2.63;1.33;;;8.00;98.40;;;;;;2073615;28;20178;-65
2021/10/07 01:54:54;;;;;;;1.40;1.03;;;7.90;99.20;;;;;;2073363;28;20232;-64
2021/10/07 01:55:55;;;;;;;2.60;1.10;;;7.80;98.90;;;;;;2073574;28;20172;-65
2021/10/07 01:56:56;;;;;;;1.47;1.00;;;7.80;99.10;;;;;;2073580;28;20184;-64
2021/10/07 01:57:57;;;;;;;1.30;1.10;;;7.70;99.90;;;;;;2073356;28;20178;-65
2021/10/07 01:58:58;;;;;;;1.13;1.07;;;7.70;99.40;;;;;;2072957;28;20727;-65
2021/10/07 01:59:59;;;;;;;2.05;0.90;;;7.60;99.50;;;;;;2073026;28;20503;-64
2021/10/07 02:00:59;;;;;;;0.90;0.90;;;7.70;99.50;;;;;;2072785;28;20176;-67
2021/10/07 02:02:00;;;;;;;1.63;1.20;;;7.70;99.30;;;;;;2072822;28;20168;-64
2021/10/07 02:03:01;;;;;;;2.27;1.33;;;7.80;99.10;;;;;;2073489;28;20199;-66
2021/10/07 02:04:03;;;;;;;3.00;1.50;;;7.80;99.10;;;;;;2073313;28;20185;-65
2021/10/07 02:05:04;;;;;;;1.35;1.25;;;7.80;99.10;;;;;;2072714;28;20261;-64
2021/10/07 02:08:21;;;;;;;3.50;1.70;;;7.90;98.70;;;;;;2074827;28;20558;-65
2021/10/07 02:09:21;;;;;;;1.60;1.50;;;8.00;98.30;;;;;;2081522;28;20277;-65
2021/10/07 02:10:22;;;;;;;1.80;1.30;;;8.00;98.30;;;;;;2081534;28;20182;-65
2021/10/07 02:11:23;;;;;;;3.03;1.40;;;8.00;98.30;;;;;;2081285;28;20206;-64
2021/10/07 02:12:24;;;;;;;2.95;1.30;;;8.00;98.20;;;;;;2081697;28;20183;-65
2021/10/07 02:13:25;;;;;;;1.27;1.17;;;8.00;98.00;;;;;;2081448;28;20180;-65
2021/10/07 02:14:25;;;;;;;1.00;0.90;;;8.10;97.90;;;;;;2080951;28;20240;-64
2021/10/07 02:15:26;;;;;;;3.13;1.37;;;8.10;97.80;;;;;;2081020;28;20177;-64
2021/10/07 02:16:32;;;;;;;1.80;1.23;;;8.10;97.60;;;;;;2081649;28;20189;-65
2021/10/07 02:17:33;;;;;;;2.25;1.27;;;8.10;97.50;;;;;;2081189;28;20172;-67
2021/10/07 02:18:34;;;;;;;1.73;1.50;;;8.10;97.50;;;;;;2080896;28;20268;-66
2021/10/07 02:19:35;;;;;;;2.93;1.43;;;8.10;97.40;;;;;;2081683;28;20559;-65
2021/10/07 02:20:35;;;;;;;4.00;1.23;;;8.10;97.40;;;;;;2081473;28;20559;-66
2021/10/07 02:21:36;;;;;;;2.80;1.27;;;8.10;97.50;;;;;;2081504;28;20182;-65
2021/10/07 02:22:38;;;;;;;2.73;1.70;;;8.10;97.50;;;;;;2081577;28;20175;-64
2021/10/07 02:23:39;;;;;;;3.22;1.33;;;8.00;97.90;;;;;;2081511;28;20192;-64
2021/10/07 02:24:40;;;;;;;1.60;1.50;;;7.90;98.30;;;;;;2081568;28;20206;-66
2021/10/07 02:25:41;;;;;;;2.40;1.50;;;7.90;98.60;;;;;;2081584;28;20296;-65
2021/10/07 02:26:42;;;;;;;2.15;1.40;;;7.80;98.90;;;;;;2081712;28;20182;-65
2021/10/07 02:27:42;;;;;;;1.57;1.37;;;7.80;99.00;;;;;;2081507;28;20179;-65
2021/10/07 02:28:43;;;;;;;2.67;1.47;;;7.80;99.10;;;;;;2081636;28;20686;-65
2021/10/07 02:29:44;;;;;;;1.70;1.30;;;7.80;99.00;;;;;;2081472;28;20176;-66
2021/10/07 02:30:44;;;;;;;1.60;1.50;;;7.80;99.00;;;;;;2081506;28;20182;-65
2021/10/07 02:31:45;;;;;;;2.57;1.30;;;7.80;98.90;;;;;;2081363;28;20584;-65
2021/10/07 02:32:46;;;;;;;1.93;1.30;;;7.90;99.00;;;;;;2081623;28;20639;-65
2021/10/07 02:33:49;;;;;;;1.53;1.10;;;7.90;99.10;;;;;;2081432;28;20258;-65
2021/10/07 02:34:49;;;;;;;3.72;1.55;;;7.90;99.30;;;;;;2081495;28;20292;-65
2021/10/07 02:35:50;;;;;;;2.33;1.50;;;7.80;99.30;;;;;;2081502;28;20185;-65
2021/10/07 02:36:51;;;;;;;1.30;1.20;;;7.90;99.40;;;;;;2081594;28;20189;-64
2021/10/07 02:37:51;;;;;;;2.40;1.30;;;7.90;99.20;;;;;;2081601;28;20182;-65
2021/10/07 02:38:52;;;;;;;3.73;1.30;;;8.00;99.10;;;;;;2081622;28;20597;-65
2021/10/07 02:39:53;;;;;;;2.80;1.00;;;8.00;98.90;;;;;;2081335;28;20185;-64
2021/10/07 02:40:53;;;;;;;1.77;1.20;;;8.00;98.70;;;;;;2083092;28;20331;-64
2021/10/07 02:41:54;;;;;;;1.60;1.20;;;8.10;98.60;;;;;;2083015;28;20208;-65
2021/10/07 02:42:55;;;;;;;0.90;0.90;;;8.10;98.40;;;;;;2083331;28;20576;-65
2021/10/07 02:43:57;;;;;;;3.03;1.15;;;8.10;98.40;;;;;;2083460;28;20211;-65
2021/10/07 02:44:57;;;;;;;2.25;1.13;;;8.10;98.30;;;;;;2082513;28;20706;-65
2021/10/07 02:45:58;;;;;;;1.40;1.20;;;8.10;98.30;;;;;;2082532;28;20183;-66
2021/10/07 02:46:59;;;;;;;2.50;1.98;;;8.10;98.30;;;;;;2083202;28;20263;-64
2021/10/07 02:48:00;;;;;;;2.80;2.17;;;8.10;98.30;;;;;;2083139;28;20657;-66
2021/10/07 02:49:01;;;;;;;2.90;1.63;;;8.10;98.30;;;;;;2083223;28;20173;-66
2021/10/07 02:50:05;;;;;;;1.55;1.45;;;8.10;98.30;;;;;;2083053;28;20178;-65
2021/10/07 02:51:06;;;;;;;3.90;1.85;;;8.10;98.20;;;;;;2082098;28;20687;-65
2021/10/07 02:52:07;;;;;;;2.07;1.80;;;8.00;98.30;;;;;;2082493;28;20173;-65
2021/10/07 02:53:08;;;;;;;2.27;1.87;;;8.10;98.30;;;;;;2083351;28;20658;-66
2021/10/07 02:54:08;;;;;;;3.78;1.98;;;8.10;98.80;;;;;;2083098;28;20182;-66
2021/10/07 02:55:09;;;;;;;2.70;1.80;;;8.10;98.30;;;;;;2082991;28;20661;-65
2021/10/07 02:56:10;;;;;;;1.95;1.73;;;8.10;98.30;;;;;;2083121;28;20193;-67
2021/10/07 02:57:11;;;;;;;1.80;1.40;;;8.10;98.30;;;;;;2083165;28;20624;-65
2021/10/07 02:58:11;;;;;;;1.57;1.47;;;8.10;98.20;;;;;;2083242;28;20238;-65
2021/10/07 02:59:12;;;;;;;3.17;1.70;;;8.20;98.10;;;;;;2083346;28;20664;-67
2021/10/07 03:00:16;;;;;;;3.13;1.98;;;8.20;98.00;;;;;;2082915;28;20188;-65
2021/10/07 03:01:17;;;;;;;1.80;1.42;;;8.20;98.00;;;;;;2083025;28;20178;-65
2021/10/07 03:02:18;;;;;;;2.70;1.50;;;8.20;98.00;;;;;;2083146;28;20212;-65
2021/10/07 03:03:19;;;;;;;1.60;1.50;;;8.20;98.40;;;;;;2083260;28;20199;-65
2021/10/07 03:04:19;;;;;;;1.53;1.40;;;8.20;98.00;;;;;;2083077;28;20714;-65
2021/10/07 03:05:20;;;;;;;1.43;1.20;;;8.20;97.90;;;;;;2082780;28;20247;-65
2021/10/07 03:06:21;;;;;;;2.13;1.30;;;8.20;97.80;;;;;;2082918;28;20181;-66
2021/10/07 03:07:21;;;;;;;2.73;1.00;;;8.20;97.90;;;;;;2082885;28;20190;-65
2021/10/07 03:08:28;;;;;;;3.70;1.20;;;8.20;97.90;;;;;;2083066;28;20204;-66
2021/10/07 03:09:29;;;;;;;1.48;1.27;;;8.20;97.80;;;;;;2083184;28;20248;-66
2021/10/07 03:10:30;;;;;;;1.83;1.40;;;8.20;97.70;;;;;;2082941;28;20644;-66
2021/10/07 03:11:30;;;;;;;3.03;1.40;;;8.20;98.10;;;;;;2082838;28;20182;-65
2021/10/07 03:12:31;;;;;;;1.93;1.60;;;8.20;97.80;;;;;;2082729;28;20656;-66
2021/10/07 03:13:32;;;;;;;3.57;1.57;;;8.20;97.90;;;;;;2082829;28;20181;-65
2021/10/07 03:14:33;;;;;;;2.70;2.10;;;8.20;98.00;;;;;;2082790;28;20572;-65
2021/10/07 03:15:34;;;;;;;4.80;1.85;;;8.10;97.80;;;;;;2082338;28;20196;-65
2021/10/07 03:16:35;;;;;;;2.20;2.00;;;8.10;97.70;;;;;;2082224;28;20267;-66
2021/10/07 03:17:36;;;;;;;5.10;2.70;;;8.20;97.70;;;;;;2082781;28;20215;-65
2021/10/07 03:18:37;;;;;;;4.40;2.40;;;8.20;97.70;;;;;;2082790;28;20238;-67
2021/10/07 03:19:38;;;;;;;4.00;2.60;;;8.10;97.80;;;;;;2082764;28;20192;-66
2021/10/07 03:20:39;;;;;;;4.50;2.60;;;8.00;98.10;;;;;;2082907;28;20672;-66
2021/10/07 03:21:40;;;;;;;4.30;2.27;;;8.10;98.20;;;;;;2082544;28;20203;-65
2021/10/07 03:22:41;;;;;;;5.93;3.17;;;8.10;98.10;;;;;;2082959;28;20701;-65
2021/10/07 03:23:41;;;;;;;3.67;2.50;;;8.10;98.10;;;;;;2081907;28;20178;-65
2021/10/07 03:24:43;;;;;;;4.30;2.10;;;8.20;98.00;;;;;;2082073;28;20443;-65
2021/10/07 03:25:44;;;;;;;3.72;1.55;;;8.20;97.90;;;;;;2082496;28;20222;-65
2021/10/07 03:26:44;;;;;;;2.20;1.87;;;8.10;97.90;;;;;;2082463;28;20785;-66
2021/10/07 03:27:45;;;;;;;3.27;1.80;;;8.20;97.90;;;;;;2082543;28;20269;-66
2021/10/07 03:28:46;;;;;;;4.80;1.77;;;8.20;97.80;;;;;;2082553;28;20181;-66
2021/10/07 03:29:46;;;;;;;1.90;1.50;;;8.30;97.70;;;;;;2082534;28;20181;-65
2021/10/07 03:30:47;;;;;;;2.17;1.60;;;8.20;97.80;;;;;;2082629;28;20544;-66
2021/10/07 03:31:48;;;;;;;3.93;1.70;;;8.20;97.90;;;;;;2082272;28;20195;-66
2021/10/07 03:32:48;;;;;;;1.30;1.20;;;8.20;97.80;;;;;;2082562;28;20175;-65
2021/10/07 03:33:49;;;;;;;2.40;1.47;;;8.20;98.10;;;;;;2082413;28;20190;-66
2021/10/07 03:34:50;;;;;;;3.10;1.80;;;8.20;97.50;;;;;;2073621;28;20264;-65
2021/10/07 03:35:50;;;;;;;2.83;1.57;;;8.20;97.60;;;;;;2073729;28;20192;-65
2021/10/07 03:36:51;;;;;;;1.77;1.30;;;8.20;97.70;;;;;;2082505;28;20237;-66
2021/10/07 03:37:52;;;;;;;1.20;1.10;;;8.30;97.60;;;;;;2082404;28;20292;-65
2021/10/07 03:38:53;;;;;;;2.03;1.50;;;8.20;97.70;;;;;;2082588;28;20242;-65
2021/10/07 03:39:54;;;;;;;1.70;1.33;;;8.20;97.90;;;;;;2082463;28;20669;-65
2021/10/07 03:40:54;;;;;;;1.40;1.30;;;8.10;97.90;;;;;;2081608;28;20182;-65
2021/10/07 03:41:55;;;;;;;3.40;1.80;;;8.10;97.90;;;;;;2081646;28;20518;-65
2021/10/07 03:42:56;;;;;;;3.40;1.70;;;8.10;98.10;;;;;;2082468;28;20185;-66
2021/10/07 03:43:57;;;;;;;2.60;1.80;;;8.10;98.00;;;;;;2082315;28;20183;-66
2021/10/07 03:44:57;;;;;;;4.20;1.50;;;8.10;98.00;;;;;;2082405;28;20184;-66
2021/10/07 03:45:58;;;;;;;2.67;1.80;;;8.10;98.20;;;;;;2082469;28;20204;-65
2021/10/07 03:46:59;;;;;;;1.50;1.40;;;8.00;98.30;;;;;;2079422;28;20180;-65
2021/10/07 03:47:59;;;;;;;2.43;1.60;;;8.00;98.40;;;;;;2074227;28;20180;-65
2021/10/07 03:49:00;;;;;;;3.20;1.70;;;8.00;98.40;;;;;;2074355;28;20179;-66
2021/10/07 03:50:01;;;;;;;2.70;1.83;;;8.00;98.50;;;;;;2074190;28;20265;-65
2021/10/07 03:51:02;;;;;;;2.83;1.60;;;8.00;98.80;;;;;;2074005;28;20186;-67
2021/10/07 03:52:03;;;;;;;2.53;1.50;;;7.90;98.80;;;;;;2072958;28;20169;-65
2021/10/07 03:53:04;;;;;;;1.95;1.42;;;7.90;98.90;;;;;;2074290;28;20183;-65
2021/10/07 03:54:05;;;;;;;1.73;1.40;;;7.90;99.00;;;;;;2074114;28;20173;-66
2021/10/07 03:55:06;;;;;;;2.33;1.43;;;7.90;98.90;;;;;;2073567;28;20266;-65
2021/10/07 03:56:07;;;;;;;1.63;1.30;;;8.00;98.80;;;;;;2073637;28;20181;-65
2021/10/07 03:57:07;;;;;;;2.00;1.60;;;8.00;98.70;;;;;;2074147;28;20178;-65
2021/10/07 03:58:08;;;;;;;2.17;1.50;;;8.00;98.60;;;;;;2074199;28;20270;-66
2021/10/07 03:59:09;;;;;;;2.20;1.30;;;8.10;98.60;;;;;;2074055;28;20203;-65
2021/10/07 04:00:10;;;;;;;1.50;1.30;;;8.10;98.40;;;;;;2074219;28;20201;-67
2021/10/07 04:01:11;;;;;;;1.63;1.35;;;8.20;98.30;;;;;;2073824;28;20179;-65
2021/10/07 04:02:12;;;;;;;4.60;1.73;;;8.20;98.60;;;;;;2074113;28;20660;-66
2021/10/07 04:03:13;;;;;;;3.53;1.90;;;8.20;98.20;;;;;;2074100;28;20207;-65
2021/10/07 04:04:14;;;;;;;2.83;2.10;;;8.10;98.30;;;;;;2074055;28;20178;-66
2021/10/07 04:05:14;;;;;;;1.80;1.60;;;8.00;98.50;;;;;;2074273;28;20302;-65
2021/10/07 04:06:15;;;;;;;2.53;2.00;;;8.00;98.50;;;;;;2074323;28;20620;-66
2021/10/07 04:07:17;;;;;;;2.73;1.70;;;8.00;98.50;;;;;;2074246;28;20182;-66
2021/10/07 04:08:19;;;;;;;2.40;1.83;;;8.00;98.50;;;;;;2074448;28;20191;-65
2021/10/07 04:09:19;;;;;;;2.35;1.70;;;8.00;98.60;;;;;;2074108;28;20174;-66
2021/10/07 04:10:20;;;;;;;2.20;2.00;;;8.00;98.60;;;;;;2074277;28;20204;-66
2021/10/07 04:11:21;;;;;;;1.90;1.60;;;8.00;98.60;;;;;;2073982;28;20184;-65
2021/10/07 04:12:22;;;;;;;2.95;1.80;;;8.00;98.60;;;;;;2073780;28;20177;-65
2021/10/07 04:13:24;;;;;;;2.10;1.70;;;8.00;98.60;;;;;;2073732;28;20994;-65
2021/10/07 04:14:25;;;;;;;2.40;1.70;;;8.10;98.60;;;;;;2073688;28;20192;-69
2021/10/07 04:15:25;;;;;;;2.47;1.90;;;8.00;98.50;;;;;;2073708;28;20190;-65
2021/10/07 04:16:26;;;;;;;2.33;1.93;;;8.10;98.50;;;;;;2074472;28;20204;-66
2021/10/07 04:17:27;;;;;;;2.50;1.90;;;8.00;98.60;;;;;;2074328;28;20246;-64
2021/10/07 04:18:28;;;;;;;2.33;2.00;;;8.00;98.50;;;;;;2074276;28;20543;-65
2021/10/07 04:19:28;;;;;;;2.73;1.90;;;8.00;98.50;;;;;;2074294;28;20191;-65
2021/10/07 04:20:29;;;;;;;2.07;1.80;;;8.10;98.40;;;;;;2074158;28;20186;-66
2021/10/07 04:21:30;;;;;;;3.23;1.90;;;8.10;98.80;;;;;;2073852;28;20188;-65
2021/10/07 04:22:30;;;;;;;2.87;1.80;;;8.10;98.30;;;;;;2073993;28;20641;-66
2021/10/07 04:23:31;;;;;;;2.00;1.70;;;8.00;98.40;;;;;;2073901;28;20187;-65
2021/10/07 04:24:32;;;;;;;1.87;1.73;;;7.90;98.70;;;;;;2074036;28;20224;-65
2021/10/07 04:25:33;;;;;;;3.87;1.97;;;7.90;98.70;;;;;;2073754;28;20603;-66
2021/10/07 04:26:33;;;;;;;2.50;2.30;;;7.90;98.80;;;;;;2073956;28;20210;-65
2021/10/07 04:27:35;;;;;;;2.77;1.83;;;7.90;98.90;;;;;;2074008;28;20674;-65
2021/10/07 04:28:36;;;;;;;1.58;1.48;;;7.90;98.80;;;;;;2073385;28;20703;-65
2021/10/07 04:29:37;;;;;;;2.00;1.83;;;8.00;98.70;;;;;;2073309;28;20181;-65
2021/10/07 04:30:39;;;;;;;2.30;1.90;;;8.00;98.60;;;;;;2074039;28;20192;-65
2021/10/07 04:31:40;;;;;;;2.92;2.10;;;8.00;98.70;;;;;;2073544;28;20190;-65
2021/10/07 04:32:40;;;;;;;2.43;1.90;;;7.90;99.10;;;;;;2073854;28;20183;-66
2021/10/07 04:33:42;;;;;;;2.60;2.30;;;7.90;99.30;;;;;;2073826;28;20236;-65
2021/10/07 04:34:42;;;;;;;2.63;2.42;;;7.80;99.30;;;;;;2073150;28;20200;-66
2021/10/07 04:35:43;;;;;;;2.00;1.90;;;7.90;99.30;;;;;;2073472;28;20575;-65
2021/10/07 04:36:44;;;;;;;2.05;1.77;;;7.90;99.20;;;;;;2073342;28;20187;-65
2021/10/07 04:37:45;;;;;;;2.40;2.20;;;7.90;99.20;;;;;;2065162;28;20626;-65
2021/10/07 04:38:45;;;;;;;4.83;2.07;;;7.90;99.10;;;;;;2073234;28;20669;-65
2021/10/07 04:39:46;;;;;;;3.13;2.47;;;8.00;99.00;;;;;;2073860;28;20248;-65
2021/10/07 04:40:47;;;;;;;2.47;2.13;;;8.00;98.80;;;;;;2073827;28;20216;-65
2021/10/07 04:41:48;;;;;;;2.40;1.87;;;8.00;98.70;;;;;;2073639;28;20189;-65
2021/10/07 04:42:48;;;;;;;2.20;2.00;;;8.00;98.70;;;;;;2073797;28;20615;-65
2021/10/07 04:43:49;;;;;;;4.87;2.13;;;8.10;98.60;;;;;;2073847;28;20267;-65
2021/10/07 04:44:50;;;;;;;2.60;2.40;;;8.10;98.70;;;;;;2073029;28;20201;-65
2021/10/07 04:45:50;;;;;;;2.73;2.23;;;8.00;98.70;;;;;;2073251;28;20243;-67
2021/10/07 04:46:51;;;;;;;3.03;2.40;;;8.00;98.90;;;;;;2073697;28;20201;-66
2021/10/07 04:47:52;;;;;;;2.57;2.13;;;7.90;98.90;;;;;;2073793;28;20660;-66
2021/10/07 04:48:54;;;;;;;3.10;2.35;;;7.90;99.00;;;;;;2073778;28;20178;-66
2021/10/07 04:49:57;;;;;;;3.10;2.08;;;7.90;98.90;;;;;;2073211;28;20178;-67
2021/10/07 04:50:58;;;;;;;3.95;2.10;;;7.90;98.80;;;;;;2073010;28;20268;-66
2021/10/07 04:51:59;;;;;;;2.93;1.80;;;7.90;98.80;;;;;;2073625;28;20247;-65
2021/10/07 04:53:00;;;;;;;2.00;1.63;;;8.00;98.70;;;;;;2073630;28;20184;-66
2021/10/07 04:54:00;;;;;;;2.50;1.80;;;8.00;98.60;;;;;;2073591;28;20643;-65
2021/10/07 04:55:01;;;;;;;2.23;2.00;;;8.00;98.50;;;;;;2073515;28;20200;-66
2021/10/07 04:56:02;;;;;;;4.68;2.03;;;8.00;98.40;;;;;;2073574;28;20176;-65
2021/10/07 04:57:03;;;;;;;3.23;2.57;;;8.00;98.40;;;;;;2073596;28;20173;-66
2021/10/07 04:58:04;;;;;;;4.65;1.90;;;8.00;98.40;;;;;;2073650;28;20768;-65
2021/10/07 04:59:05;;;;;;;2.07;1.87;;;8.00;98.40;;;;;;2073621;28;20182;-66
2021/10/07 05:00:07;;;;;;;5.27;2.27;;;7.90;98.30;;;;;;2073766;28;20211;-66
2021/10/07 05:01:08;;;;;;;2.28;2.08;;;7.90;98.30;;;;;;2073312;28;20615;-66
2021/10/07 05:02:08;;;;;;;4.00;2.40;;;7.80;98.50;;;;;;2073682;28;20184;-66
2021/10/07 05:03:09;;;;;;;4.07;2.03;;;7.80;98.70;;;;;;2073195;28;20590;-66
2021/10/07 05:04:10;;;;;;;2.67;1.97;;;7.80;98.70;;;;;;2073678;28;20178;-65
2021/10/07 05:05:11;;;;;;;3.27;2.13;;;7.80;98.70;;;;;;2073634;28;20320;-65
2021/10/07 05:06:11;;;;;;;3.37;2.20;;;7.80;98.60;;;;;;2073517;28;20663;-66
2021/10/07 05:07:12;;;;;;;3.27;2.20;;;7.80;98.50;;;;;;2073553;28;20177;-65
2021/10/07 05:08:13;;;;;;;3.70;2.30;;;7.80;98.40;;;;;;2073587;28;20239;-65
2021/10/07 05:09:13;;;;;;;2.50;2.10;;;7.80;98.40;;;;;;2073608;28;20645;-65
2021/10/07 05:10:14;;;;;;;2.37;2.17;;;7.80;98.50;;;;;;2073646;28;20179;-64
2021/10/07 05:11:15;;;;;;;3.93;2.33;;;7.80;98.30;;;;;;2073510;28;20174;-65
2021/10/07 05:12:15;;;;;;;3.03;2.60;;;7.70;98.10;;;;;;2073658;28;20176;-66
2021/10/07 05:13:16;;;;;;;3.83;2.80;;;7.70;98.00;;;;;;2073609;28;20177;-65
2021/10/07 05:14:17;;;;;;;3.87;2.50;;;7.70;97.90;;;;;;2073448;28;20317;-64
2021/10/07 05:15:18;;;;;;;5.57;2.27;;;7.60;97.80;;;;;;2073623;28;20261;-66
2021/10/07 05:16:18;;;;;;;3.57;2.10;;;7.60;97.90;;;;;;2073536;28;20182;-66
2021/10/07 05:17:19;;;;;;;3.07;2.37;;;7.50;97.80;;;;;;2073602;28;20182;-65
2021/10/07 05:18:20;;;;;;;3.87;2.67;;;7.40;97.70;;;;;;2073537;28;20178;-65
2021/10/07 05:19:20;;;;;;;2.60;2.40;;;7.40;97.60;;;;;;2073468;28;20288;-64
2021/10/07 05:20:21;;;;;;;4.30;2.47;;;7.30;97.70;;;;;;2073484;28;20203;-65
2021/10/07 05:21:22;;;;;;;2.63;2.17;;;7.20;98.00;;;;;;2073344;28;20552;-65
2021/10/07 05:22:23;;;;;;;3.57;2.30;;;7.20;98.10;;;;;;2073515;28;20613;-64
2021/10/07 05:23:23;;;;;;;4.87;2.53;;;7.10;98.10;;;;;;2073557;28;20188;-66
2021/10/07 05:24:24;;;;;;;4.10;2.90;;;7.10;98.00;;;;;;2073293;28;20210;-65
2021/10/07 05:25:25;;;;;;;4.50;2.80;;;7.00;98.30;;;;;;2073544;28;20263;-65
2021/10/07 05:26:25;;;;;;;3.30;2.73;;;7.00;98.50;;;;;;2073509;28;20236;-66
2021/10/07 05:27:26;;;;;;;4.07;2.87;;;6.90;98.60;;;;;;2073494;28;20175;-65
2021/10/07 05:28:27;;;;;;;5.57;3.00;;;6.90;98.80;;;;;;2073407;28;20218;-65
2021/10/07 05:29:28;;;;;;;3.83;2.97;;;6.80;98.70;;;;;;2073576;28;20684;-66